sensor_id;sensor_type;location;lat;lon;timestamp;P1;durP1;ratioP1;P2;durP2;ratioP2
24157;SDS011;12316;50.904;4.200;2023-05-09T00:00:50;12.60;;;10.35;;
24157;SDS011;12316;50.904;4.200;2023-05-09T00:03:16;13.38;;;10.18;;
24157;SDS011;12316;50.904;4.200;2023-05-09T00:05:42;14.50;;;10.32;;
24157;SDS011;12316;50.904;4.200;2023-05-09T00:08:13;13.60;;;10.23;;
24157;SDS011;12316;50.904;4.200;2023-05-09T00:10:41;12.85;;;10.40;;
24157;SDS011;12316;50.904;4.200;2023-05-09T00:13:06;13.68;;;10.02;;
24157;SDS011;12316;50.904;4.200;2023-05-09T00:15:32;14.73;;;10.30;;
24157;SDS011;12316;50.904;4.200;2023-05-09T00:17:58;13.23;;;10.18;;
24157;SDS011;12316;50.904;4.200;2023-05-09T00:20:23;13.45;;;10.20;;
24157;SDS011;12316;50.904;4.200;2023-05-09T00:22:49;11.93;;;9.75;;
24157;SDS011;12316;50.904;4.200;2023-05-09T00:25:15;11.65;;;9.95;;
24157;SDS011;12316;50.904;4.200;2023-05-09T00:27:41;13.63;;;10.23;;
24157;SDS011;12316;50.904;4.200;2023-05-09T00:30:07;16.40;;;10.60;;
24157;SDS011;12316;50.904;4.200;2023-05-09T00:32:32;15.30;;;10.63;;
24157;SDS011;12316;50.904;4.200;2023-05-09T00:34:58;11.90;;;9.77;;
24157;SDS011;12316;50.904;4.200;2023-05-09T00:37:25;14.50;;;10.30;;
24157;SDS011;12316;50.904;4.200;2023-05-09T00:39:51;13.70;;;10.93;;
24157;SDS011;12316;50.904;4.200;2023-05-09T00:42:16;14.20;;;10.63;;
24157;SDS011;12316;50.904;4.200;2023-05-09T00:44:42;14.90;;;10.35;;
24157;SDS011;12316;50.904;4.200;2023-05-09T00:47:07;13.15;;;10.88;;
24157;SDS011;12316;50.904;4.200;2023-05-09T00:49:33;14.52;;;10.48;;
24157;SDS011;12316;50.904;4.200;2023-05-09T00:51:59;13.55;;;10.40;;
24157;SDS011;12316;50.904;4.200;2023-05-09T00:54:26;12.93;;;10.73;;
24157;SDS011;12316;50.904;4.200;2023-05-09T00:56:52;11.98;;;10.02;;
24157;SDS011;12316;50.904;4.200;2023-05-09T00:59:18;12.85;;;10.75;;
24157;SDS011;12316;50.904;4.200;2023-05-09T01:01:44;12.27;;;10.07;;
24157;SDS011;12316;50.904;4.200;2023-05-09T01:04:10;12.52;;;10.18;;
24157;SDS011;12316;50.904;4.200;2023-05-09T01:09:42;12.88;;;9.60;;
24157;SDS011;12316;50.904;4.200;2023-05-09T01:12:42;9.85;;;8.80;;
24157;SDS011;12316;50.904;4.200;2023-05-09T01:18:01;10.98;;;8.63;;
24157;SDS011;12316;50.904;4.200;2023-05-09T01:26:13;11.48;;;9.02;;
24157;SDS011;12316;50.904;4.200;2023-05-09T01:31:43;11.55;;;9.35;;
24157;SDS011;12316;50.904;4.200;2023-05-09T01:34:10;11.82;;;9.02;;
24157;SDS011;12316;50.904;4.200;2023-05-09T01:36:40;11.10;;;9.32;;
24157;SDS011;12316;50.904;4.200;2023-05-09T01:39:07;11.63;;;9.18;;
24157;SDS011;12316;50.904;4.200;2023-05-09T01:41:36;11.25;;;9.35;;
24157;SDS011;12316;50.904;4.200;2023-05-09T01:44:04;14.43;;;9.95;;
24157;SDS011;12316;50.904;4.200;2023-05-09T01:46:32;15.52;;;9.18;;
24157;SDS011;12316;50.904;4.200;2023-05-09T01:49:00;14.27;;;9.55;;
24157;SDS011;12316;50.904;4.200;2023-05-09T01:51:27;12.57;;;9.82;;
24157;SDS011;12316;50.904;4.200;2023-05-09T01:53:55;11.90;;;8.63;;
24157;SDS011;12316;50.904;4.200;2023-05-09T01:56:23;11.00;;;8.88;;
24157;SDS011;12316;50.904;4.200;2023-05-09T01:58:50;11.52;;;8.80;;
24157;SDS011;12316;50.904;4.200;2023-05-09T02:01:18;12.52;;;9.50;;
24157;SDS011;12316;50.904;4.200;2023-05-09T02:03:44;10.60;;;8.35;;
24157;SDS011;12316;50.904;4.200;2023-05-09T02:06:16;10.23;;;8.48;;
24157;SDS011;12316;50.904;4.200;2023-05-09T02:08:44;10.27;;;8.35;;
24157;SDS011;12316;50.904;4.200;2023-05-09T02:11:11;12.35;;;9.07;;
24157;SDS011;12316;50.904;4.200;2023-05-09T02:13:36;11.60;;;8.48;;
24157;SDS011;12316;50.904;4.200;2023-05-09T02:16:03;10.65;;;8.75;;
24157;SDS011;12316;50.904;4.200;2023-05-09T02:18:30;10.73;;;8.00;;
24157;SDS011;12316;50.904;4.200;2023-05-09T02:20:56;11.35;;;7.80;;
24157;SDS011;12316;50.904;4.200;2023-05-09T02:23:22;11.70;;;8.20;;
24157;SDS011;12316;50.904;4.200;2023-05-09T02:25:47;10.02;;;8.65;;
24157;SDS011;12316;50.904;4.200;2023-05-09T02:28:16;9.65;;;8.27;;
24157;SDS011;12316;50.904;4.200;2023-05-09T02:30:43;9.18;;;7.93;;
24157;SDS011;12316;50.904;4.200;2023-05-09T02:33:11;10.45;;;8.32;;
24157;SDS011;12316;50.904;4.200;2023-05-09T02:35:42;12.32;;;8.05;;
24157;SDS011;12316;50.904;4.200;2023-05-09T02:38:10;8.50;;;7.60;;
24157;SDS011;12316;50.904;4.200;2023-05-09T02:40:36;10.73;;;8.38;;
24157;SDS011;12316;50.904;4.200;2023-05-09T02:43:03;10.38;;;8.30;;
24157;SDS011;12316;50.904;4.200;2023-05-09T02:45:29;10.00;;;8.15;;
24157;SDS011;12316;50.904;4.200;2023-05-09T02:47:55;13.38;;;8.40;;
24157;SDS011;12316;50.904;4.200;2023-05-09T02:50:20;11.43;;;8.52;;
24157;SDS011;12316;50.904;4.200;2023-05-09T02:52:46;10.55;;;7.75;;
24157;SDS011;12316;50.904;4.200;2023-05-09T02:55:12;11.65;;;8.27;;
24157;SDS011;12316;50.904;4.200;2023-05-09T02:57:37;15.13;;;8.50;;
24157;SDS011;12316;50.904;4.200;2023-05-09T03:00:03;9.95;;;8.05;;
24157;SDS011;12316;50.904;4.200;2023-05-09T03:02:33;9.40;;;7.68;;
24157;SDS011;12316;50.904;4.200;2023-05-09T03:04:59;11.02;;;8.07;;
24157;SDS011;12316;50.904;4.200;2023-05-09T03:07:25;10.48;;;7.72;;
24157;SDS011;12316;50.904;4.200;2023-05-09T03:09:51;10.95;;;8.15;;
24157;SDS011;12316;50.904;4.200;2023-05-09T03:12:16;10.00;;;7.80;;
24157;SDS011;12316;50.904;4.200;2023-05-09T03:14:42;10.20;;;8.38;;
24157;SDS011;12316;50.904;4.200;2023-05-09T03:17:07;10.23;;;8.02;;
24157;SDS011;12316;50.904;4.200;2023-05-09T03:19:33;10.65;;;8.27;;
24157;SDS011;12316;50.904;4.200;2023-05-09T03:21:59;10.30;;;8.25;;
24157;SDS011;12316;50.904;4.200;2023-05-09T03:24:25;12.65;;;8.57;;
24157;SDS011;12316;50.904;4.200;2023-05-09T03:26:52;10.32;;;7.82;;
24157;SDS011;12316;50.904;4.200;2023-05-09T03:29:18;11.07;;;7.93;;
24157;SDS011;12316;50.904;4.200;2023-05-09T03:31:45;11.15;;;8.30;;
24157;SDS011;12316;50.904;4.200;2023-05-09T03:34:10;11.02;;;8.63;;
24157;SDS011;12316;50.904;4.200;2023-05-09T03:36:40;10.52;;;8.23;;
24157;SDS011;12316;50.904;4.200;2023-05-09T03:39:07;12.27;;;8.15;;
24157;SDS011;12316;50.904;4.200;2023-05-09T03:41:34;11.73;;;8.48;;
24157;SDS011;12316;50.904;4.200;2023-05-09T03:44:00;11.32;;;8.68;;
24157;SDS011;12316;50.904;4.200;2023-05-09T03:46:26;12.75;;;8.88;;
24157;SDS011;12316;50.904;4.200;2023-05-09T03:48:52;11.43;;;9.52;;
24157;SDS011;12316;50.904;4.200;2023-05-09T03:51:17;10.98;;;9.15;;
24157;SDS011;12316;50.904;4.200;2023-05-09T03:53:45;12.43;;;8.55;;
24157;SDS011;12316;50.904;4.200;2023-05-09T03:56:11;13.80;;;9.48;;
24157;SDS011;12316;50.904;4.200;2023-05-09T03:58:37;12.18;;;9.30;;
24157;SDS011;12316;50.904;4.200;2023-05-09T04:01:03;10.80;;;9.05;;
24157;SDS011;12316;50.904;4.200;2023-05-09T04:03:29;10.48;;;8.13;;
24157;SDS011;12316;50.904;4.200;2023-05-09T04:05:54;10.57;;;9.10;;
24157;SDS011;12316;50.904;4.200;2023-05-09T04:08:20;11.77;;;8.90;;
24157;SDS011;12316;50.904;4.200;2023-05-09T04:10:48;11.50;;;9.60;;
24157;SDS011;12316;50.904;4.200;2023-05-09T04:13:15;12.10;;;9.15;;
24157;SDS011;12316;50.904;4.200;2023-05-09T04:15:40;11.90;;;9.70;;
24157;SDS011;12316;50.904;4.200;2023-05-09T04:18:06;11.95;;;9.00;;
24157;SDS011;12316;50.904;4.200;2023-05-09T04:20:32;12.05;;;9.23;;
24157;SDS011;12316;50.904;4.200;2023-05-09T04:22:58;13.18;;;9.88;;
24157;SDS011;12316;50.904;4.200;2023-05-09T04:25:24;11.00;;;9.30;;
24157;SDS011;12316;50.904;4.200;2023-05-09T04:27:50;13.15;;;9.70;;
24157;SDS011;12316;50.904;4.200;2023-05-09T04:30:16;11.90;;;9.18;;
24157;SDS011;12316;50.904;4.200;2023-05-09T04:32:42;11.43;;;9.60;;
24157;SDS011;12316;50.904;4.200;2023-05-09T04:35:12;13.43;;;10.13;;
24157;SDS011;12316;50.904;4.200;2023-05-09T04:37:38;12.55;;;9.95;;
24157;SDS011;12316;50.904;4.200;2023-05-09T04:40:04;12.80;;;10.02;;
24157;SDS011;12316;50.904;4.200;2023-05-09T04:42:31;14.38;;;9.95;;
24157;SDS011;12316;50.904;4.200;2023-05-09T04:44:58;11.73;;;9.75;;
24157;SDS011;12316;50.904;4.200;2023-05-09T04:47:24;13.82;;;9.88;;
24157;SDS011;12316;50.904;4.200;2023-05-09T04:49:50;14.50;;;10.27;;
24157;SDS011;12316;50.904;4.200;2023-05-09T04:52:16;14.95;;;10.40;;
24157;SDS011;12316;50.904;4.200;2023-05-09T04:54:41;12.57;;;10.35;;
24157;SDS011;12316;50.904;4.200;2023-05-09T04:57:07;13.45;;;10.63;;
24157;SDS011;12316;50.904;4.200;2023-05-09T04:59:33;12.20;;;9.68;;
24157;SDS011;12316;50.904;4.200;2023-05-09T05:01:59;12.82;;;10.45;;
24157;SDS011;12316;50.904;4.200;2023-05-09T05:04:25;12.43;;;10.38;;
24157;SDS011;12316;50.904;4.200;2023-05-09T05:06:51;15.10;;;10.85;;
24157;SDS011;12316;50.904;4.200;2023-05-09T05:09:17;16.80;;;11.43;;
24157;SDS011;12316;50.904;4.200;2023-05-09T05:11:43;14.60;;;10.95;;
24157;SDS011;12316;50.904;4.200;2023-05-09T05:14:09;12.70;;;10.95;;
24157;SDS011;12316;50.904;4.200;2023-05-09T05:16:35;13.85;;;10.05;;
24157;SDS011;12316;50.904;4.200;2023-05-09T05:19:01;13.48;;;10.82;;
24157;SDS011;12316;50.904;4.200;2023-05-09T05:21:27;15.93;;;10.68;;
24157;SDS011;12316;50.904;4.200;2023-05-09T05:23:52;12.57;;;10.68;;
24157;SDS011;12316;50.904;4.200;2023-05-09T05:26:18;13.77;;;10.27;;
24157;SDS011;12316;50.904;4.200;2023-05-09T05:28:45;14.02;;;10.73;;
24157;SDS011;12316;50.904;4.200;2023-05-09T05:31:10;12.23;;;10.50;;
24157;SDS011;12316;50.904;4.200;2023-05-09T05:33:36;11.60;;;9.95;;
24157;SDS011;12316;50.904;4.200;2023-05-09T05:36:01;12.63;;;10.02;;
24157;SDS011;12316;50.904;4.200;2023-05-09T05:38:28;11.27;;;9.20;;
24157;SDS011;12316;50.904;4.200;2023-05-09T05:40:54;13.02;;;9.65;;
24157;SDS011;12316;50.904;4.200;2023-05-09T05:43:19;11.70;;;9.35;;
24157;SDS011;12316;50.904;4.200;2023-05-09T05:45:45;14.18;;;9.32;;
24157;SDS011;12316;50.904;4.200;2023-05-09T05:48:11;10.90;;;9.73;;
24157;SDS011;12316;50.904;4.200;2023-05-09T05:50:36;11.40;;;9.30;;
24157;SDS011;12316;50.904;4.200;2023-05-09T05:53:02;10.35;;;9.13;;
24157;SDS011;12316;50.904;4.200;2023-05-09T05:55:28;10.98;;;9.30;;
24157;SDS011;12316;50.904;4.200;2023-05-09T05:57:53;12.27;;;9.55;;
24157;SDS011;12316;50.904;4.200;2023-05-09T06:00:19;10.55;;;9.20;;
24157;SDS011;12316;50.904;4.200;2023-05-09T06:02:45;10.55;;;8.80;;
24157;SDS011;12316;50.904;4.200;2023-05-09T06:05:13;10.88;;;9.48;;
24157;SDS011;12316;50.904;4.200;2023-05-09T06:07:39;11.68;;;9.70;;
24157;SDS011;12316;50.904;4.200;2023-05-09T06:10:08;12.43;;;9.48;;
24157;SDS011;12316;50.904;4.200;2023-05-09T06:12:35;12.50;;;9.73;;
24157;SDS011;12316;50.904;4.200;2023-05-09T06:15:01;12.75;;;9.40;;
24157;SDS011;12316;50.904;4.200;2023-05-09T06:17:29;12.50;;;10.00;;
24157;SDS011;12316;50.904;4.200;2023-05-09T06:19:55;12.75;;;9.70;;
24157;SDS011;12316;50.904;4.200;2023-05-09T06:22:20;10.70;;;9.30;;
24157;SDS011;12316;50.904;4.200;2023-05-09T06:24:46;12.32;;;9.32;;
24157;SDS011;12316;50.904;4.200;2023-05-09T06:27:12;11.38;;;9.85;;
24157;SDS011;12316;50.904;4.200;2023-05-09T06:29:37;10.18;;;8.57;;
24157;SDS011;12316;50.904;4.200;2023-05-09T06:32:03;13.60;;;9.27;;
24157;SDS011;12316;50.904;4.200;2023-05-09T06:34:29;10.23;;;9.10;;
24157;SDS011;12316;50.904;4.200;2023-05-09T06:36:54;11.00;;;9.18;;
24157;SDS011;12316;50.904;4.200;2023-05-09T06:39:20;11.35;;;9.88;;
24157;SDS011;12316;50.904;4.200;2023-05-09T06:41:46;11.05;;;9.45;;
24157;SDS011;12316;50.904;4.200;2023-05-09T06:44:11;15.30;;;9.43;;
24157;SDS011;12316;50.904;4.200;2023-05-09T06:46:37;10.18;;;8.80;;
24157;SDS011;12316;50.904;4.200;2023-05-09T06:49:03;12.07;;;9.18;;
24157;SDS011;12316;50.904;4.200;2023-05-09T06:51:30;10.88;;;9.43;;
24157;SDS011;12316;50.904;4.200;2023-05-09T06:53:55;13.02;;;9.15;;
24157;SDS011;12316;50.904;4.200;2023-05-09T06:56:21;12.95;;;9.50;;
24157;SDS011;12316;50.904;4.200;2023-05-09T06:58:47;10.70;;;9.57;;
24157;SDS011;12316;50.904;4.200;2023-05-09T07:01:13;11.90;;;8.85;;
24157;SDS011;12316;50.904;4.200;2023-05-09T07:03:39;13.00;;;9.63;;
24157;SDS011;12316;50.904;4.200;2023-05-09T07:06:04;9.93;;;8.45;;
24157;SDS011;12316;50.904;4.200;2023-05-09T07:08:31;11.45;;;8.60;;
24157;SDS011;12316;50.904;4.200;2023-05-09T07:10:56;11.18;;;8.95;;
24157;SDS011;12316;50.904;4.200;2023-05-09T07:13:22;11.00;;;8.43;;
24157;SDS011;12316;50.904;4.200;2023-05-09T07:15:48;11.05;;;8.95;;
24157;SDS011;12316;50.904;4.200;2023-05-09T07:18:13;12.48;;;8.70;;
24157;SDS011;12316;50.904;4.200;2023-05-09T07:20:39;10.20;;;8.27;;
24157;SDS011;12316;50.904;4.200;2023-05-09T07:23:05;12.02;;;8.80;;
24157;SDS011;12316;50.904;4.200;2023-05-09T07:25:30;9.98;;;7.78;;
24157;SDS011;12316;50.904;4.200;2023-05-09T07:27:56;9.80;;;8.18;;
24157;SDS011;12316;50.904;4.200;2023-05-09T07:30:22;11.02;;;8.05;;
24157;SDS011;12316;50.904;4.200;2023-05-09T07:32:48;10.10;;;8.30;;
24157;SDS011;12316;50.904;4.200;2023-05-09T07:35:15;9.80;;;7.97;;
24157;SDS011;12316;50.904;4.200;2023-05-09T07:37:42;9.90;;;8.13;;
24157;SDS011;12316;50.904;4.200;2023-05-09T07:40:07;9.90;;;7.32;;
24157;SDS011;12316;50.904;4.200;2023-05-09T07:42:33;10.15;;;7.70;;
24157;SDS011;12316;50.904;4.200;2023-05-09T07:44:59;9.48;;;7.38;;
24157;SDS011;12316;50.904;4.200;2023-05-09T07:47:25;9.40;;;7.53;;
24157;SDS011;12316;50.904;4.200;2023-05-09T07:49:51;10.05;;;7.63;;
24157;SDS011;12316;50.904;4.200;2023-05-09T07:52:16;9.57;;;7.68;;
24157;SDS011;12316;50.904;4.200;2023-05-09T07:54:42;11.73;;;7.63;;
24157;SDS011;12316;50.904;4.200;2023-05-09T07:57:09;8.38;;;7.53;;
24157;SDS011;12316;50.904;4.200;2023-05-09T07:59:35;9.38;;;7.63;;
24157;SDS011;12316;50.904;4.200;2023-05-09T08:02:00;10.00;;;7.50;;
24157;SDS011;12316;50.904;4.200;2023-05-09T08:04:27;10.73;;;7.90;;
24157;SDS011;12316;50.904;4.200;2023-05-09T08:06:52;12.02;;;7.35;;
24157;SDS011;12316;50.904;4.200;2023-05-09T08:09:18;8.30;;;7.15;;
24157;SDS011;12316;50.904;4.200;2023-05-09T08:11:45;8.10;;;6.88;;
24157;SDS011;12316;50.904;4.200;2023-05-09T08:14:11;9.77;;;7.60;;
24157;SDS011;12316;50.904;4.200;2023-05-09T08:16:36;9.40;;;7.90;;
24157;SDS011;12316;50.904;4.200;2023-05-09T08:19:02;8.35;;;7.45;;
24157;SDS011;12316;50.904;4.200;2023-05-09T08:21:28;8.68;;;7.75;;
24157;SDS011;12316;50.904;4.200;2023-05-09T08:23:53;10.45;;;8.07;;
24157;SDS011;12316;50.904;4.200;2023-05-09T08:26:19;9.15;;;7.95;;
24157;SDS011;12316;50.904;4.200;2023-05-09T08:28:46;11.02;;;8.65;;
24157;SDS011;12316;50.904;4.200;2023-05-09T08:31:12;10.73;;;8.50;;
24157;SDS011;12316;50.904;4.200;2023-05-09T08:33:37;10.65;;;8.50;;
24157;SDS011;12316;50.904;4.200;2023-05-09T08:36:03;10.90;;;8.30;;
24157;SDS011;12316;50.904;4.200;2023-05-09T08:38:29;9.65;;;8.65;;
24157;SDS011;12316;50.904;4.200;2023-05-09T08:41:01;10.98;;;8.93;;
24157;SDS011;12316;50.904;4.200;2023-05-09T08:43:27;11.80;;;8.95;;
24157;SDS011;12316;50.904;4.200;2023-05-09T08:45:54;10.38;;;8.45;;
24157;SDS011;12316;50.904;4.200;2023-05-09T08:48:25;11.98;;;9.43;;
24157;SDS011;12316;50.904;4.200;2023-05-09T08:50:52;10.35;;;9.25;;
24157;SDS011;12316;50.904;4.200;2023-05-09T08:53:20;10.93;;;9.02;;
24157;SDS011;12316;50.904;4.200;2023-05-09T08:55:47;10.85;;;9.75;;
24157;SDS011;12316;50.904;4.200;2023-05-09T08:58:14;10.40;;;8.45;;
24157;SDS011;12316;50.904;4.200;2023-05-09T09:00:41;11.93;;;9.45;;
24157;SDS011;12316;50.904;4.200;2023-05-09T09:03:06;10.02;;;8.65;;
24157;SDS011;12316;50.904;4.200;2023-05-09T09:05:33;12.57;;;9.88;;
24157;SDS011;12316;50.904;4.200;2023-05-09T09:08:02;11.80;;;9.32;;
24157;SDS011;12316;50.904;4.200;2023-05-09T09:10:30;12.93;;;9.85;;
24157;SDS011;12316;50.904;4.200;2023-05-09T09:12:57;10.10;;;9.10;;
24157;SDS011;12316;50.904;4.200;2023-05-09T09:15:25;11.93;;;9.88;;
24157;SDS011;12316;50.904;4.200;2023-05-09T09:17:54;11.52;;;10.13;;
24157;SDS011;12316;50.904;4.200;2023-05-09T09:20:24;11.45;;;9.48;;
24157;SDS011;12316;50.904;4.200;2023-05-09T09:22:57;12.43;;;10.80;;
24157;SDS011;12316;50.904;4.200;2023-05-09T09:25:27;12.02;;;9.55;;
24157;SDS011;12316;50.904;4.200;2023-05-09T09:27:52;14.88;;;9.98;;
24157;SDS011;12316;50.904;4.200;2023-05-09T09:30:18;11.10;;;9.90;;
24157;SDS011;12316;50.904;4.200;2023-05-09T09:32:47;11.48;;;9.52;;
24157;SDS011;12316;50.904;4.200;2023-05-09T09:35:13;12.57;;;9.70;;
24157;SDS011;12316;50.904;4.200;2023-05-09T09:37:39;14.15;;;10.73;;
24157;SDS011;12316;50.904;4.200;2023-05-09T09:40:06;14.60;;;10.77;;
24157;SDS011;12316;50.904;4.200;2023-05-09T09:42:40;14.38;;;10.68;;
24157;SDS011;12316;50.904;4.200;2023-05-09T09:45:17;14.80;;;10.98;;
24157;SDS011;12316;50.904;4.200;2023-05-09T09:47:45;16.95;;;11.05;;
24157;SDS011;12316;50.904;4.200;2023-05-09T09:50:13;17.20;;;11.20;;
24157;SDS011;12316;50.904;4.200;2023-05-09T09:52:54;19.10;;;11.57;;
24157;SDS011;12316;50.904;4.200;2023-05-09T09:55:21;16.80;;;11.27;;
24157;SDS011;12316;50.904;4.200;2023-05-09T09:57:48;14.45;;;9.57;;
24157;SDS011;12316;50.904;4.200;2023-05-09T10:00:15;14.35;;;9.70;;
24157;SDS011;12316;50.904;4.200;2023-05-09T10:03:01;14.63;;;9.70;;
24157;SDS011;12316;50.904;4.200;2023-05-09T10:05:27;14.73;;;8.93;;
24157;SDS011;12316;50.904;4.200;2023-05-09T10:10:28;14.70;;;9.23;;
24157;SDS011;12316;50.904;4.200;2023-05-09T10:12:56;12.60;;;8.18;;
24157;SDS011;12316;50.904;4.200;2023-05-09T10:15:23;8.68;;;7.20;;
24157;SDS011;12316;50.904;4.200;2023-05-09T10:17:51;8.25;;;5.78;;
24157;SDS011;12316;50.904;4.200;2023-05-09T10:20:19;8.45;;;5.70;;
24157;SDS011;12316;50.904;4.200;2023-05-09T10:22:46;8.02;;;5.82;;
24157;SDS011;12316;50.904;4.200;2023-05-09T10:25:13;8.80;;;5.28;;
24157;SDS011;12316;50.904;4.200;2023-05-09T10:27:44;8.63;;;5.78;;
24157;SDS011;12316;50.904;4.200;2023-05-09T10:30:17;7.70;;;6.20;;
24157;SDS011;12316;50.904;4.200;2023-05-09T10:33:02;6.57;;;5.60;;
24157;SDS011;12316;50.904;4.200;2023-05-09T10:35:35;10.52;;;6.10;;
24157;SDS011;12316;50.904;4.200;2023-05-09T10:38:07;10.55;;;6.47;;
24157;SDS011;12316;50.904;4.200;2023-05-09T10:40:36;9.25;;;6.45;;
24157;SDS011;12316;50.904;4.200;2023-05-09T10:43:02;8.00;;;6.03;;
24157;SDS011;12316;50.904;4.200;2023-05-09T10:45:29;9.13;;;6.47;;
24157;SDS011;12316;50.904;4.200;2023-05-09T10:47:55;12.88;;;7.18;;
24157;SDS011;12316;50.904;4.200;2023-05-09T10:50:23;8.68;;;7.00;;
24157;SDS011;12316;50.904;4.200;2023-05-09T11:00:49;9.73;;;5.82;;
24157;SDS011;12316;50.904;4.200;2023-05-09T11:03:15;9.27;;;5.95;;
24157;SDS011;12316;50.904;4.200;2023-05-09T11:05:45;8.75;;;5.20;;
24157;SDS011;12316;50.904;4.200;2023-05-09T11:10:58;5.95;;;3.50;;
24157;SDS011;12316;50.904;4.200;2023-05-09T11:13:30;4.07;;;3.03;;
24157;SDS011;12316;50.904;4.200;2023-05-09T11:18:29;3.63;;;2.65;;
24157;SDS011;12316;50.904;4.200;2023-05-09T11:20:56;4.00;;;2.47;;
24157;SDS011;12316;50.904;4.200;2023-05-09T11:23:26;3.88;;;2.60;;
24157;SDS011;12316;50.904;4.200;2023-05-09T11:26:03;4.07;;;2.60;;
24157;SDS011;12316;50.904;4.200;2023-05-09T11:28:33;3.38;;;2.80;;
24157;SDS011;12316;50.904;4.200;2023-05-09T11:33:35;3.13;;;2.42;;
24157;SDS011;12316;50.904;4.200;2023-05-09T11:36:21;5.70;;;2.70;;
24157;SDS011;12316;50.904;4.200;2023-05-09T11:41:27;3.50;;;2.58;;
24157;SDS011;12316;50.904;4.200;2023-05-09T11:43:54;5.00;;;2.88;;
24157;SDS011;12316;50.904;4.200;2023-05-09T11:46:21;3.60;;;3.03;;
24157;SDS011;12316;50.904;4.200;2023-05-09T11:48:47;4.55;;;3.25;;
24157;SDS011;12316;50.904;4.200;2023-05-09T11:51:14;4.72;;;3.03;;
24157;SDS011;12316;50.904;4.200;2023-05-09T11:53:43;3.42;;;3.13;;
24157;SDS011;12316;50.904;4.200;2023-05-09T11:56:13;4.00;;;3.13;;
24157;SDS011;12316;50.904;4.200;2023-05-09T11:58:40;5.47;;;3.08;;
24157;SDS011;12316;50.904;4.200;2023-05-09T12:01:06;3.83;;;3.17;;
24157;SDS011;12316;50.904;4.200;2023-05-09T12:03:32;4.82;;;3.30;;
24157;SDS011;12316;50.904;4.200;2023-05-09T12:05:58;5.05;;;3.10;;
24157;SDS011;12316;50.904;4.200;2023-05-09T12:08:24;6.18;;;3.33;;
24157;SDS011;12316;50.904;4.200;2023-05-09T12:10:51;4.35;;;3.17;;
24157;SDS011;12316;50.904;4.200;2023-05-09T12:13:16;3.25;;;2.95;;
24157;SDS011;12316;50.904;4.200;2023-05-09T12:15:43;4.22;;;3.38;;
24157;SDS011;12316;50.904;4.200;2023-05-09T12:18:09;3.53;;;3.20;;
24157;SDS011;12316;50.904;4.200;2023-05-09T12:23:09;4.13;;;3.60;;
24157;SDS011;12316;50.904;4.200;2023-05-09T12:25:36;5.18;;;3.53;;
24157;SDS011;12316;50.904;4.200;2023-05-09T12:28:02;5.68;;;3.20;;
24157;SDS011;12316;50.904;4.200;2023-05-09T12:30:28;5.95;;;2.50;;
24157;SDS011;12316;50.904;4.200;2023-05-09T12:32:54;4.18;;;2.40;;
24157;SDS011;12316;50.904;4.200;2023-05-09T12:35:20;3.72;;;2.30;;
24157;SDS011;12316;50.904;4.200;2023-05-09T12:37:59;3.38;;;2.55;;
24157;SDS011;12316;50.904;4.200;2023-05-09T12:40:25;4.32;;;2.67;;
24157;SDS011;12316;50.904;4.200;2023-05-09T12:42:51;3.47;;;2.50;;
24157;SDS011;12316;50.904;4.200;2023-05-09T12:45:21;3.63;;;2.50;;
24157;SDS011;12316;50.904;4.200;2023-05-09T12:47:50;5.28;;;2.60;;
24157;SDS011;12316;50.904;4.200;2023-05-09T12:50:16;3.50;;;2.70;;
24157;SDS011;12316;50.904;4.200;2023-05-09T12:52:42;4.35;;;2.67;;
24157;SDS011;12316;50.904;4.200;2023-05-09T12:55:08;4.18;;;2.80;;
24157;SDS011;12316;50.904;4.200;2023-05-09T12:57:36;4.63;;;2.90;;
24157;SDS011;12316;50.904;4.200;2023-05-09T13:00:03;3.22;;;2.70;;
24157;SDS011;12316;50.904;4.200;2023-05-09T13:02:34;2.42;;;2.20;;
24157;SDS011;12316;50.904;4.200;2023-05-09T13:07:43;2.88;;;2.00;;
24157;SDS011;12316;50.904;4.200;2023-05-09T13:10:14;2.67;;;2.03;;
24157;SDS011;12316;50.904;4.200;2023-05-09T13:14:19;10.18;;;7.53;;
24157;SDS011;12316;50.904;4.200;2023-05-09T13:16:45;8.00;;;7.20;;
24157;SDS011;12316;50.904;4.200;2023-05-09T13:19:11;7.65;;;6.78;;
24157;SDS011;12316;50.904;4.200;2023-05-09T13:21:37;6.90;;;6.20;;
24157;SDS011;12316;50.904;4.200;2023-05-09T13:24:03;9.07;;;6.20;;
24157;SDS011;12316;50.904;4.200;2023-05-09T13:26:29;6.70;;;5.60;;
24157;SDS011;12316;50.904;4.200;2023-05-09T13:28:55;5.95;;;4.90;;
24157;SDS011;12316;50.904;4.200;2023-05-09T13:31:21;5.70;;;5.10;;
24157;SDS011;12316;50.904;4.200;2023-05-09T13:33:47;5.75;;;4.90;;
24157;SDS011;12316;50.904;4.200;2023-05-09T13:36:13;5.38;;;4.65;;
24157;SDS011;12316;50.904;4.200;2023-05-09T13:38:40;4.65;;;4.22;;
24157;SDS011;12316;50.904;4.200;2023-05-09T13:41:06;7.40;;;4.50;;
24157;SDS011;12316;50.904;4.200;2023-05-09T13:43:33;6.38;;;4.55;;
24157;SDS011;12316;50.904;4.200;2023-05-09T13:45:59;7.13;;;4.40;;
24157;SDS011;12316;50.904;4.200;2023-05-09T13:48:25;5.07;;;4.07;;
24157;SDS011;12316;50.904;4.200;2023-05-09T13:50:51;11.15;;;4.00;;
24157;SDS011;12316;50.904;4.200;2023-05-09T13:53:16;5.07;;;4.00;;
24157;SDS011;12316;50.904;4.200;2023-05-09T13:55:42;4.80;;;4.22;;
24157;SDS011;12316;50.904;4.200;2023-05-09T13:58:09;5.80;;;4.00;;
24157;SDS011;12316;50.904;4.200;2023-05-09T14:00:35;5.97;;;4.07;;
24157;SDS011;12316;50.904;4.200;2023-05-09T14:03:01;5.03;;;4.13;;
24157;SDS011;12316;50.904;4.200;2023-05-09T14:05:29;4.63;;;4.10;;
24157;SDS011;12316;50.904;4.200;2023-05-09T14:07:56;5.20;;;3.65;;
24157;SDS011;12316;50.904;4.200;2023-05-09T14:10:21;4.53;;;3.78;;
24157;SDS011;12316;50.904;4.200;2023-05-09T14:12:49;5.18;;;3.90;;
24157;SDS011;12316;50.904;4.200;2023-05-09T14:15:16;5.43;;;3.67;;
24157;SDS011;12316;50.904;4.200;2023-05-09T14:17:42;4.55;;;3.92;;
24157;SDS011;12316;50.904;4.200;2023-05-09T14:20:08;3.53;;;3.22;;
24157;SDS011;12316;50.904;4.200;2023-05-09T14:22:34;7.75;;;3.80;;
24157;SDS011;12316;50.904;4.200;2023-05-09T14:25:00;4.80;;;3.58;;
24157;SDS011;12316;50.904;4.200;2023-05-09T14:27:26;3.72;;;3.30;;
24157;SDS011;12316;50.904;4.200;2023-05-09T14:29:51;5.88;;;3.17;;
24157;SDS011;12316;50.904;4.200;2023-05-09T14:32:17;4.05;;;3.50;;
24157;SDS011;12316;50.904;4.200;2023-05-09T14:34:43;4.63;;;3.53;;
24157;SDS011;12316;50.904;4.200;2023-05-09T14:37:09;6.70;;;4.07;;
24157;SDS011;12316;50.904;4.200;2023-05-09T14:43:40;3.38;;;0.90;;
24157;SDS011;12316;50.904;4.200;2023-05-09T14:46:06;1.40;;;0.80;;
24157;SDS011;12316;50.904;4.200;2023-05-09T14:48:31;3.35;;;0.90;;
24157;SDS011;12316;50.904;4.200;2023-05-09T14:51:00;2.15;;;0.98;;
24157;SDS011;12316;50.904;4.200;2023-05-09T14:53:27;1.00;;;0.90;;
24157;SDS011;12316;50.904;4.200;2023-05-09T14:55:53;1.63;;;1.08;;
24157;SDS011;12316;50.904;4.200;2023-05-09T14:58:20;4.85;;;1.25;;
24157;SDS011;12316;50.904;4.200;2023-05-09T15:00:46;2.13;;;0.98;;
24157;SDS011;12316;50.904;4.200;2023-05-09T15:03:12;1.13;;;0.85;;
24157;SDS011;12316;50.904;4.200;2023-05-09T15:05:39;0.98;;;0.90;;
24157;SDS011;12316;50.904;4.200;2023-05-09T15:08:05;1.52;;;0.90;;
24157;SDS011;12316;50.904;4.200;2023-05-09T15:10:32;1.85;;;1.20;;
24157;SDS011;12316;50.904;4.200;2023-05-09T15:12:58;1.60;;;1.50;;
24157;SDS011;12316;50.904;4.200;2023-05-09T15:15:24;1.48;;;1.30;;
24157;SDS011;12316;50.904;4.200;2023-05-09T15:17:50;1.50;;;1.40;;
24157;SDS011;12316;50.904;4.200;2023-05-09T15:20:17;1.23;;;1.10;;
24157;SDS011;12316;50.904;4.200;2023-05-09T15:22:43;2.00;;;1.50;;